sensor_id;sensor_type;location;lat;lon;timestamp;pressure;altitude;pressure_sealevel;temperature;humidity
50592;BME280;36548;50.506;30.834;2023-06-10T00:00:27;99815.89;;;22.82;45.22
50592;BME280;36548;50.506;30.834;2023-06-10T00:01:42;99811.64;;;22.94;44.94
50592;BME280;36548;50.506;30.834;2023-06-10T00:02:59;99807.52;;;22.84;45.13
50592;BME280;36548;50.506;30.834;2023-06-10T00:04:08;99813.00;;;22.84;45.20
50592;BME280;36548;50.506;30.834;2023-06-10T00:05:23;99807.03;;;22.95;45.28
50592;BME280;36548;50.506;30.834;2023-06-10T00:06:32;99811.93;;;22.85;45.25
50592;BME280;36548;50.506;30.834;2023-06-10T00:07:44;99808.36;;;22.84;45.12
50592;BME280;36548;50.506;30.834;2023-06-10T00:09:03;99814.38;;;22.94;45.15
50592;BME280;36548;50.506;30.834;2023-06-10T00:10:14;99817.21;;;22.86;45.00
50592;BME280;36548;50.506;30.834;2023-06-10T00:11:24;99807.78;;;22.89;44.80
50592;BME280;36548;50.506;30.834;2023-06-10T00:12:40;99808.98;;;23.01;44.61
50592;BME280;36548;50.506;30.834;2023-06-10T00:13:50;99805.05;;;22.89;44.01
50592;BME280;36548;50.506;30.834;2023-06-10T00:15:07;99803.71;;;22.99;43.85
50592;BME280;36548;50.506;30.834;2023-06-10T00:16:17;99811.73;;;22.86;43.83
50592;BME280;36548;50.506;30.834;2023-06-10T00:17:34;99800.88;;;22.93;43.71
50592;BME280;36548;50.506;30.834;2023-06-10T00:18:43;99801.38;;;22.81;43.70
50592;BME280;36548;50.506;30.834;2023-06-10T00:20:19;99800.05;;;22.92;43.73
50592;BME280;36548;50.506;30.834;2023-06-10T00:21:32;99805.14;;;22.80;43.67
50592;BME280;36548;50.506;30.834;2023-06-10T00:22:50;99802.88;;;22.84;43.79
50592;BME280;36548;50.506;30.834;2023-06-10T00:24:00;99797.22;;;22.71;44.02
50592;BME280;36548;50.506;30.834;2023-06-10T00:25:11;99797.80;;;22.66;44.13
50592;BME280;36548;50.506;30.834;2023-06-10T00:26:23;99794.03;;;22.67;44.12
50592;BME280;36548;50.506;30.834;2023-06-10T00:27:38;99792.33;;;22.81;43.99
50592;BME280;36548;50.506;30.834;2023-06-10T00:28:47;99804.02;;;22.75;43.95
50592;BME280;36548;50.506;30.834;2023-06-10T00:30:04;99803.37;;;22.88;44.20
50592;BME280;36548;50.506;30.834;2023-06-10T00:31:15;99806.20;;;22.79;44.19
50592;BME280;36548;50.506;30.834;2023-06-10T00:32:26;99801.76;;;22.78;44.33
50592;BME280;36548;50.506;30.834;2023-06-10T00:33:35;99802.80;;;22.77;44.62
50592;BME280;36548;50.506;30.834;2023-06-10T00:34:45;99808.36;;;22.69;44.69
50592;BME280;36548;50.506;30.834;2023-06-10T00:35:54;99803.27;;;22.66;44.76
50592;BME280;36548;50.506;30.834;2023-06-10T00:37:09;99805.23;;;22.72;44.85
50592;BME280;36548;50.506;30.834;2023-06-10T00:38:18;99806.94;;;22.58;44.87
50592;BME280;36548;50.506;30.834;2023-06-10T00:39:34;99801.02;;;22.55;44.90
50592;BME280;36548;50.506;30.834;2023-06-10T00:40:45;99802.89;;;22.39;45.02
50592;BME280;36548;50.506;30.834;2023-06-10T00:42:01;99797.80;;;22.51;45.23
50592;BME280;36548;50.506;30.834;2023-06-10T00:43:12;99797.88;;;22.43;45.38
50592;BME280;36548;50.506;30.834;2023-06-10T00:44:28;99802.23;;;22.52;45.44
50592;BME280;36548;50.506;30.834;2023-06-10T00:45:37;99806.22;;;22.26;45.99
50592;BME280;36548;50.506;30.834;2023-06-10T00:46:54;99803.48;;;22.26;46.28
50592;BME280;36548;50.506;30.834;2023-06-10T00:48:06;99804.13;;;22.13;46.29
50592;BME280;36548;50.506;30.834;2023-06-10T00:49:16;99807.32;;;22.02;46.65
50592;BME280;36548;50.506;30.834;2023-06-10T00:50:35;99805.15;;;21.98;46.92
50592;BME280;36548;50.506;30.834;2023-06-10T00:51:48;99816.98;;;21.90;47.45
50592;BME280;36548;50.506;30.834;2023-06-10T00:53:03;99811.65;;;21.73;48.52
50592;BME280;36548;50.506;30.834;2023-06-10T00:54:13;99812.80;;;21.24;49.73
50592;BME280;36548;50.506;30.834;2023-06-10T00:55:28;99813.13;;;21.29;49.98
50592;BME280;36548;50.506;30.834;2023-06-10T00:56:38;99805.07;;;21.05;50.54
50592;BME280;36548;50.506;30.834;2023-06-10T00:57:48;99815.75;;;20.75;51.33
50592;BME280;36548;50.506;30.834;2023-06-10T00:58:59;99819.02;;;20.62;51.93
50592;BME280;36548;50.506;30.834;2023-06-10T01:00:21;99813.76;;;20.52;52.51
50592;BME280;36548;50.506;30.834;2023-06-10T01:01:42;99819.58;;;20.41;52.69
50592;BME280;36548;50.506;30.834;2023-06-10T01:02:52;99822.48;;;20.39;52.73
50592;BME280;36548;50.506;30.834;2023-06-10T01:04:02;99824.15;;;20.49;52.36
50592;BME280;36548;50.506;30.834;2023-06-10T01:05:17;99820.56;;;20.56;52.57
50592;BME280;36548;50.506;30.834;2023-06-10T01:08:20;99823.50;;;20.38;52.67
50592;BME280;36548;50.506;30.834;2023-06-10T01:09:35;99813.24;;;20.49;52.47
50592;BME280;36548;50.506;30.834;2023-06-10T01:12:13;99815.93;;;20.73;51.83
50592;BME280;36548;50.506;30.834;2023-06-10T01:13:25;99819.02;;;20.62;51.65
50592;BME280;36548;50.506;30.834;2023-06-10T01:14:41;99810.14;;;20.68;51.40
50592;BME280;36548;50.506;30.834;2023-06-10T01:17:08;99813.87;;;20.84;50.50
50592;BME280;36548;50.506;30.834;2023-06-10T01:18:18;99815.69;;;20.91;50.29
50592;BME280;36548;50.506;30.834;2023-06-10T01:19:29;99818.39;;;21.00;50.03
50592;BME280;36548;50.506;30.834;2023-06-10T01:20:39;99827.26;;;21.02;49.98
50592;BME280;36548;50.506;30.834;2023-06-10T01:21:54;99809.10;;;21.17;49.90
50592;BME280;36548;50.506;30.834;2023-06-10T01:23:04;99816.16;;;21.03;49.80
50592;BME280;36548;50.506;30.834;2023-06-10T01:24:19;99813.50;;;21.18;49.62
50592;BME280;36548;50.506;30.834;2023-06-10T01:25:30;99813.40;;;21.11;49.43
50592;BME280;36548;50.506;30.834;2023-06-10T01:26:43;99814.38;;;21.19;49.28
50592;BME280;36548;50.506;30.834;2023-06-10T01:28:09;99821.36;;;21.21;49.41
50592;BME280;36548;50.506;30.834;2023-06-10T01:30:58;99823.00;;;20.99;50.08
50592;BME280;36548;50.506;30.834;2023-06-10T01:32:18;99809.43;;;21.14;49.93
50592;BME280;36548;50.506;30.834;2023-06-10T01:33:31;99812.89;;;21.08;49.97
50592;BME280;36548;50.506;30.834;2023-06-10T01:34:42;99814.42;;;21.10;49.89
50592;BME280;36548;50.506;30.834;2023-06-10T01:35:57;99817.98;;;21.11;49.81
50592;BME280;36548;50.506;30.834;2023-06-10T01:37:06;99824.31;;;21.11;49.75
50592;BME280;36548;50.506;30.834;2023-06-10T01:38:25;99813.88;;;21.15;50.12
50592;BME280;36548;50.506;30.834;2023-06-10T01:39:36;99825.87;;;21.06;49.92
50592;BME280;36548;50.506;30.834;2023-06-10T01:41:03;99815.25;;;21.11;50.22
50592;BME280;36548;50.506;30.834;2023-06-10T01:42:13;99822.28;;;21.05;50.08
50592;BME280;36548;50.506;30.834;2023-06-10T01:43:23;99824.86;;;20.99;50.22
50592;BME280;36548;50.506;30.834;2023-06-10T01:44:39;99820.34;;;21.14;50.03
50592;BME280;36548;50.506;30.834;2023-06-10T01:45:49;99820.94;;;21.01;49.98
50592;BME280;36548;50.506;30.834;2023-06-10T01:46:59;99816.86;;;20.97;50.25
50592;BME280;36548;50.506;30.834;2023-06-10T01:48:16;99811.88;;;21.09;50.21
50592;BME280;36548;50.506;30.834;2023-06-10T01:49:25;99810.74;;;20.95;50.15
50592;BME280;36548;50.506;30.834;2023-06-10T01:50:42;99812.38;;;21.04;50.12
50592;BME280;36548;50.506;30.834;2023-06-10T01:51:52;99819.95;;;20.94;50.29
50592;BME280;36548;50.506;30.834;2023-06-10T01:53:03;99813.83;;;20.92;50.21
50592;BME280;36548;50.506;30.834;2023-06-10T01:54:14;99813.47;;;20.95;49.98
50592;BME280;36548;50.506;30.834;2023-06-10T01:55:29;99810.37;;;20.98;50.29
50592;BME280;36548;50.506;30.834;2023-06-10T01:56:39;99814.49;;;20.94;50.09
50592;BME280;36548;50.506;30.834;2023-06-10T01:57:49;99811.44;;;20.89;50.24
50592;BME280;36548;50.506;30.834;2023-06-10T01:58:59;99808.20;;;20.93;50.03
50592;BME280;36548;50.506;30.834;2023-06-10T02:00:16;99811.55;;;21.04;49.92
50592;BME280;36548;50.506;30.834;2023-06-10T02:01:26;99818.42;;;20.91;50.04
50592;BME280;36548;50.506;30.834;2023-06-10T02:02:36;99815.03;;;20.89;50.11
50592;BME280;36548;50.506;30.834;2023-06-10T02:03:52;99814.67;;;20.92;50.22
50592;BME280;36548;50.506;30.834;2023-06-10T02:05:02;99820.31;;;20.91;50.01
50592;BME280;36548;50.506;30.834;2023-06-10T02:06:18;99818.06;;;20.94;50.26
50592;BME280;36548;50.506;30.834;2023-06-10T02:07:28;99818.27;;;20.85;50.39
50592;BME280;36548;50.506;30.834;2023-06-10T02:08:44;99818.56;;;20.98;50.32
50592;BME280;36548;50.506;30.834;2023-06-10T02:09:54;99819.44;;;20.90;50.15
50592;BME280;36548;50.506;30.834;2023-06-10T02:11:11;99821.11;;;21.00;50.25
50592;BME280;36548;50.506;30.834;2023-06-10T02:12:21;99818.27;;;20.85;50.43
50592;BME280;36548;50.506;30.834;2023-06-10T02:13:38;99818.93;;;20.95;50.40
50592;BME280;36548;50.506;30.834;2023-06-10T02:14:47;99821.33;;;20.90;50.19
50592;BME280;36548;50.506;30.834;2023-06-10T02:16:03;99826.19;;;20.71;50.68
50592;BME280;36548;50.506;30.834;2023-06-10T02:17:13;99828.55;;;20.74;50.62
50592;BME280;36548;50.506;30.834;2023-06-10T02:18:30;99819.65;;;20.81;50.71
50592;BME280;36548;50.506;30.834;2023-06-10T02:19:40;99827.70;;;20.66;50.89
50592;BME280;36548;50.506;30.834;2023-06-10T02:20:52;99823.09;;;20.66;51.01
50592;BME280;36548;50.506;30.834;2023-06-10T02:22:07;99825.31;;;20.71;51.17
50592;BME280;36548;50.506;30.834;2023-06-10T02:23:17;99827.55;;;20.59;51.30
50592;BME280;36548;50.506;30.834;2023-06-10T02:24:33;99833.30;;;20.64;51.50
50592;BME280;36548;50.506;30.834;2023-06-10T02:25:42;99828.05;;;20.54;51.46
50592;BME280;36548;50.506;30.834;2023-06-10T02:26:52;99824.82;;;20.59;51.33
50592;BME280;36548;50.506;30.834;2023-06-10T02:28:03;99829.42;;;20.50;51.53
50592;BME280;36548;50.506;30.834;2023-06-10T02:29:19;99826.53;;;20.60;51.65
50592;BME280;36548;50.506;30.834;2023-06-10T02:30:29;99835.06;;;20.40;51.97
50592;BME280;36548;50.506;30.834;2023-06-10T02:31:39;99842.59;;;20.30;52.40
50592;BME280;36548;50.506;30.834;2023-06-10T02:32:55;99832.87;;;20.36;52.49
50592;BME280;36548;50.506;30.834;2023-06-10T02:34:06;99844.30;;;20.31;52.52
50592;BME280;36548;50.506;30.834;2023-06-10T02:35:15;99840.05;;;20.29;52.62
50592;BME280;36548;50.506;30.834;2023-06-10T02:36:38;99841.58;;;20.31;52.93
50592;BME280;36548;50.506;30.834;2023-06-10T02:37:46;99844.14;;;20.24;52.80
50592;BME280;36548;50.506;30.834;2023-06-10T02:39:03;99841.75;;;20.38;52.74
50592;BME280;36548;50.506;30.834;2023-06-10T02:40:14;99845.33;;;20.22;52.91
50592;BME280;36548;50.506;30.834;2023-06-10T02:41:29;99849.59;;;20.24;53.31
50592;BME280;36548;50.506;30.834;2023-06-10T02:42:40;99848.23;;;20.12;53.32
50592;BME280;36548;50.506;30.834;2023-06-10T02:43:56;99848.75;;;20.24;53.35
50592;BME280;36548;50.506;30.834;2023-06-10T02:45:07;99849.24;;;20.11;53.36
50592;BME280;36548;50.506;30.834;2023-06-10T02:46:24;99857.59;;;20.09;53.73
50592;BME280;36548;50.506;30.834;2023-06-10T02:47:37;99852.49;;;20.06;53.47
50592;BME280;36548;50.506;30.834;2023-06-10T02:48:48;99853.16;;;20.17;53.04
50592;BME280;36548;50.506;30.834;2023-06-10T02:50:07;99849.77;;;20.23;53.19
50592;BME280;36548;50.506;30.834;2023-06-10T02:51:18;99867.13;;;20.14;53.04
50592;BME280;36548;50.506;30.834;2023-06-10T02:52:34;99857.25;;;20.13;53.45
50592;BME280;36548;50.506;30.834;2023-06-10T02:53:43;99862.03;;;20.02;53.35
50592;BME280;36548;50.506;30.834;2023-06-10T02:54:54;99858.61;;;20.00;53.38
50592;BME280;36548;50.506;30.834;2023-06-10T02:56:05;99862.55;;;19.89;53.60
50592;BME280;36548;50.506;30.834;2023-06-10T02:57:15;99858.77;;;19.90;53.83
50592;BME280;36548;50.506;30.834;2023-06-10T02:58:31;99863.56;;;19.97;54.02
50592;BME280;36548;50.506;30.834;2023-06-10T02:59:41;99874.11;;;19.91;53.88
50592;BME280;36548;50.506;30.834;2023-06-10T03:00:52;99863.73;;;19.95;53.77
50592;BME280;36548;50.506;30.834;2023-06-10T03:02:09;99862.87;;;20.11;53.65
50592;BME280;36548;50.506;30.834;2023-06-10T03:03:21;99866.78;;;20.00;53.76
50592;BME280;36548;50.506;30.834;2023-06-10T03:04:39;99869.02;;;19.97;53.82
50592;BME280;36548;50.506;30.834;2023-06-10T03:05:51;99867.30;;;19.96;53.68
50592;BME280;36548;50.506;30.834;2023-06-10T03:07:02;99880.42;;;19.92;53.91
50592;BME280;36548;50.506;30.834;2023-06-10T03:08:38;99861.33;;;20.08;53.97
50592;BME280;36548;50.506;30.834;2023-06-10T03:09:52;99876.48;;;19.95;53.86
50592;BME280;36548;50.506;30.834;2023-06-10T03:11:01;99881.94;;;20.11;53.48
50592;BME280;36548;50.506;30.834;2023-06-10T03:12:16;99869.02;;;20.21;53.61
50592;BME280;36548;50.506;30.834;2023-06-10T03:13:28;99878.20;;;20.20;53.43
50592;BME280;36548;50.506;30.834;2023-06-10T03:14:44;99870.02;;;20.37;53.19
50592;BME280;36548;50.506;30.834;2023-06-10T03:15:55;99877.33;;;20.28;53.21
50592;BME280;36548;50.506;30.834;2023-06-10T03:17:05;99873.94;;;20.34;53.14
50592;BME280;36548;50.506;30.834;2023-06-10T03:18:16;99876.64;;;20.51;52.78
50592;BME280;36548;50.506;30.834;2023-06-10T03:19:32;99863.84;;;20.68;52.44
50592;BME280;36548;50.506;30.834;2023-06-10T03:20:45;99874.39;;;20.63;52.46
50592;BME280;36548;50.506;30.834;2023-06-10T03:23:15;99867.70;;;20.90;52.12
50592;BME280;36548;50.506;30.834;2023-06-10T03:24:25;99873.70;;;20.85;51.90
50592;BME280;36548;50.506;30.834;2023-06-10T03:25:47;99875.66;;;21.08;51.69
50592;BME280;36548;50.506;30.834;2023-06-10T03:26:58;99871.03;;;21.08;51.42
50592;BME280;36548;50.506;30.834;2023-06-10T03:28:07;99866.75;;;21.14;51.13
50592;BME280;36548;50.506;30.834;2023-06-10T03:29:22;99859.87;;;21.26;51.08
50592;BME280;36548;50.506;30.834;2023-06-10T03:30:32;99858.52;;;21.22;51.04
50592;BME280;36548;50.506;30.834;2023-06-10T03:31:55;99858.63;;;21.37;50.91
50592;BME280;36548;50.506;30.834;2023-06-10T03:33:07;99870.27;;;21.31;51.04
50592;BME280;36548;50.506;30.834;2023-06-10T03:34:16;99863.25;;;21.37;50.92
50592;BME280;36548;50.506;30.834;2023-06-10T03:35:40;99858.58;;;21.45;51.21
50592;BME280;36548;50.506;30.834;2023-06-10T03:36:51;99869.69;;;21.44;50.98
50592;BME280;36548;50.506;30.834;2023-06-10T03:38:06;99861.90;;;21.64;50.95
50592;BME280;36548;50.506;30.834;2023-06-10T03:39:16;99869.48;;;21.54;50.57
50592;BME280;36548;50.506;30.834;2023-06-10T03:40:25;99865.93;;;21.45;51.18
50592;BME280;36548;50.506;30.834;2023-06-10T03:41:36;99873.25;;;21.44;51.04
50592;BME280;36548;50.506;30.834;2023-06-10T03:42:53;99865.56;;;21.48;51.53
50592;BME280;36548;50.506;30.834;2023-06-10T03:44:04;99870.34;;;21.46;51.33
50592;BME280;36548;50.506;30.834;2023-06-10T03:45:12;99869.31;;;21.47;51.21
50592;BME280;36548;50.506;30.834;2023-06-10T03:46:28;99865.37;;;21.58;51.28
50592;BME280;36548;50.506;30.834;2023-06-10T03:47:37;99868.66;;;21.45;51.38
50592;BME280;36548;50.506;30.834;2023-06-10T03:48:49;99868.16;;;21.41;51.59
50592;BME280;36548;50.506;30.834;2023-06-10T03:50:05;99866.45;;;21.40;52.11
50592;BME280;36548;50.506;30.834;2023-06-10T03:51:18;99883.05;;;21.31;52.17
50592;BME280;36548;50.506;30.834;2023-06-10T03:52:39;99863.48;;;21.50;52.09
50592;BME280;36548;50.506;30.834;2023-06-10T03:53:49;99873.25;;;21.44;52.05
50592;BME280;36548;50.506;30.834;2023-06-10T03:55:06;99868.23;;;21.65;52.19
50592;BME280;36548;50.506;30.834;2023-06-10T03:56:16;99876.74;;;21.70;52.22
50592;BME280;36548;50.506;30.834;2023-06-10T03:57:26;99862.28;;;21.84;51.64
50592;BME280;36548;50.506;30.834;2023-06-10T03:58:42;99860.52;;;22.14;51.23
50592;BME280;36548;50.506;30.834;2023-06-10T04:01:03;99852.20;;;22.46;50.28
50592;BME280;36548;50.506;30.834;2023-06-10T04:02:14;99855.13;;;22.44;50.00
50592;BME280;36548;50.506;30.834;2023-06-10T04:03:26;99852.50;;;22.51;50.05
50592;BME280;36548;50.506;30.834;2023-06-10T04:04:36;99857.69;;;22.61;50.13
50592;BME280;36548;50.506;30.834;2023-06-10T04:05:47;99860.44;;;22.76;49.98
50592;BME280;36548;50.506;30.834;2023-06-10T04:07:22;99861.58;;;22.96;49.53
50592;BME280;36548;50.506;30.834;2023-06-10T04:08:33;99867.80;;;22.90;49.06
50592;BME280;36548;50.506;30.834;2023-06-10T04:09:42;99861.58;;;22.96;49.07
50592;BME280;36548;50.506;30.834;2023-06-10T04:10:52;99862.99;;;23.07;49.00
50592;BME280;36548;50.506;30.834;2023-06-10T04:12:02;99859.98;;;23.17;48.59
50592;BME280;36548;50.506;30.834;2023-06-10T04:13:21;99856.47;;;23.23;49.04
50592;BME280;36548;50.506;30.834;2023-06-10T04:14:34;99865.72;;;23.22;48.99
50592;BME280;36548;50.506;30.834;2023-06-10T04:15:51;99853.31;;;23.41;48.66
50592;BME280;36548;50.506;30.834;2023-06-10T04:17:01;99862.03;;;23.30;48.74
50592;BME280;36548;50.506;30.834;2023-06-10T04:18:11;99866.38;;;23.39;48.76
50592;BME280;36548;50.506;30.834;2023-06-10T04:19:32;99855.03;;;23.64;48.52
50592;BME280;36548;50.506;30.834;2023-06-10T04:20:42;99860.58;;;23.49;48.34
50592;BME280;36548;50.506;30.834;2023-06-10T04:21:54;99856.55;;;23.00;49.82
50592;BME280;36548;50.506;30.834;2023-06-10T04:23:03;99858.38;;;23.23;49.36
50592;BME280;36548;50.506;30.834;2023-06-10T04:24:13;99856.66;;;23.22;49.33
50592;BME280;36548;50.506;30.834;2023-06-10T04:25:28;99860.89;;;23.39;49.51
50592;BME280;36548;50.506;30.834;2023-06-10T04:26:38;99850.34;;;23.06;50.14
50592;BME280;36548;50.506;30.834;2023-06-10T04:27:54;99853.03;;;23.36;49.83
50592;BME280;36548;50.506;30.834;2023-06-10T04:29:06;99854.30;;;23.34;49.67
50592;BME280;36548;50.506;30.834;2023-06-10T04:30:22;99854.63;;;23.45;49.51
50592;BME280;36548;50.506;30.834;2023-06-10T04:31:32;99857.28;;;23.39;49.45
50592;BME280;36548;50.506;30.834;2023-06-10T04:32:41;99847.84;;;23.41;49.16
50592;BME280;36548;50.506;30.834;2023-06-10T04:33:52;99847.20;;;23.39;49.33
50592;BME280;36548;50.506;30.834;2023-06-10T04:35:11;99851.13;;;23.52;49.26
50592;BME280;36548;50.506;30.834;2023-06-10T04:36:23;99849.66;;;23.34;49.71
50592;BME280;36548;50.506;30.834;2023-06-10T04:37:33;99852.33;;;23.12;50.53
50592;BME280;36548;50.506;30.834;2023-06-10T04:38:42;99847.22;;;23.24;50.27
50592;BME280;36548;50.506;30.834;2023-06-10T04:39:57;99849.16;;;23.45;50.15
50592;BME280;36548;50.506;30.834;2023-06-10T04:41:10;99853.12;;;23.43;49.76
50592;BME280;36548;50.506;30.834;2023-06-10T04:42:26;99841.53;;;23.62;49.80
50592;BME280;36548;50.506;30.834;2023-06-10T04:43:36;99853.09;;;23.58;49.73
50592;BME280;36548;50.506;30.834;2023-06-10T04:44:46;99855.43;;;23.61;49.51
50592;BME280;36548;50.506;30.834;2023-06-10T04:46:00;99851.84;;;23.82;49.05
50592;BME280;36548;50.506;30.834;2023-06-10T04:47:10;99845.53;;;23.81;49.07
50592;BME280;36548;50.506;30.834;2023-06-10T04:48:25;99847.91;;;24.06;48.74
50592;BME280;36548;50.506;30.834;2023-06-10T04:49:35;99842.42;;;24.06;48.49
50592;BME280;36548;50.506;30.834;2023-06-10T04:50:45;99845.23;;;24.13;48.43
50592;BME280;36548;50.506;30.834;2023-06-10T04:52:02;99848.12;;;24.33;47.94
50592;BME280;36548;50.506;30.834;2023-06-10T04:53:17;99845.03;;;24.14;48.03
50592;BME280;36548;50.506;30.834;2023-06-10T04:54:32;99848.78;;;24.35;47.71
50592;BME280;36548;50.506;30.834;2023-06-10T04:55:43;99850.43;;;24.29;47.87
50592;BME280;36548;50.506;30.834;2023-06-10T04:56:59;99840.30;;;24.30;48.15
50592;BME280;36548;50.506;30.834;2023-06-10T04:58:10;99840.09;;;24.31;47.79
50592;BME280;36548;50.506;30.834;2023-06-10T04:59:25;99842.58;;;24.26;47.80
50592;BME280;36548;50.506;30.834;2023-06-10T05:00:35;99856.70;;;24.23;47.64
50592;BME280;36548;50.506;30.834;2023-06-10T05:01:46;99853.17;;;24.29;47.65
50592;BME280;36548;50.506;30.834;2023-06-10T05:02:57;99846.24;;;24.33;47.52
50592;BME280;36548;50.506;30.834;2023-06-10T05:04:08;99845.17;;;24.34;47.40
50592;BME280;36548;50.506;30.834;2023-06-10T05:05:18;99848.17;;;24.40;47.32
50592;BME280;36548;50.506;30.834;2023-06-10T05:06:29;99850.08;;;24.39;47.13
50592;BME280;36548;50.506;30.834;2023-06-10T05:07:45;99844.30;;;24.56;46.96
50592;BME280;36548;50.506;30.834;2023-06-10T05:08:55;99842.95;;;24.45;46.85
50592;BME280;36548;50.506;30.834;2023-06-10T05:10:05;99841.04;;;24.45;47.01
50592;BME280;36548;50.506;30.834;2023-06-10T05:11:14;99841.92;;;24.53;47.03
50592;BME280;36548;50.506;30.834;2023-06-10T05:12:23;99848.28;;;24.53;46.95
50592;BME280;36548;50.506;30.834;2023-06-10T05:13:41;99845.01;;;24.64;47.03
50592;BME280;36548;50.506;30.834;2023-06-10T05:14:51;99851.74;;;24.62;47.12
50592;BME280;36548;50.506;30.834;2023-06-10T05:16:00;99852.22;;;24.72;47.11
50592;BME280;36548;50.506;30.834;2023-06-10T05:17:17;99841.79;;;24.96;46.86
50592;BME280;36548;50.506;30.834;2023-06-10T05:18:26;99844.95;;;24.93;46.30
50592;BME280;36548;50.506;30.834;2023-06-10T05:19:41;99840.82;;;25.10;46.23
50592;BME280;36548;50.506;30.834;2023-06-10T05:20:52;99842.78;;;24.81;46.41
50592;BME280;36548;50.506;30.834;2023-06-10T05:22:09;99844.58;;;25.02;46.06
50592;BME280;36548;50.506;30.834;2023-06-10T05:23:19;99855.97;;;24.99;46.20
50592;BME280;36548;50.506;30.834;2023-06-10T05:24:34;99847.59;;;25.14;46.00
50592;BME280;36548;50.506;30.834;2023-06-10T05:25:44;99853.69;;;25.10;46.09
50592;BME280;36548;50.506;30.834;2023-06-10T05:26:55;99847.59;;;25.14;45.93
50592;BME280;36548;50.506;30.834;2023-06-10T05:28:12;99845.55;;;25.30;46.03
50592;BME280;36548;50.506;30.834;2023-06-10T05:29:22;99842.77;;;25.23;45.93
50592;BME280;36548;50.506;30.834;2023-06-10T05:30:38;99837.59;;;25.48;45.58
50592;BME280;36548;50.506;30.834;2023-06-10T05:31:48;99840.95;;;25.37;45.35
50592;BME280;36548;50.506;30.834;2023-06-10T05:33:09;99840.59;;;25.60;44.97
50592;BME280;36548;50.506;30.834;2023-06-10T05:34:18;99841.63;;;25.52;44.82
50592;BME280;36548;50.506;30.834;2023-06-10T05:35:28;99843.95;;;25.49;44.92
50592;BME280;36548;50.506;30.834;2023-06-10T05:36:39;99851.34;;;25.48;44.93
50592;BME280;36548;50.506;30.834;2023-06-10T05:37:49;99843.56;;;25.59;44.18
50592;BME280;36548;50.506;30.834;2023-06-10T05:38:58;99849.08;;;25.65;44.08
50592;BME280;36548;50.506;30.834;2023-06-10T05:40:13;99835.56;;;25.84;44.10
50592;BME280;36548;50.506;30.834;2023-06-10T05:41:22;99840.02;;;25.85;44.31
50592;BME280;36548;50.506;30.834;2023-06-10T05:42:31;99840.66;;;26.00;44.12
50592;BME280;36548;50.506;30.834;2023-06-10T05:43:47;99840.47;;;26.22;43.57
50592;BME280;36548;50.506;30.834;2023-06-10T05:44:57;99847.90;;;26.01;43.45
50592;BME280;36548;50.506;30.834;2023-06-10T05:46:13;99840.47;;;26.22;43.02
50592;BME280;36548;50.506;30.834;2023-06-10T05:47:23;99835.19;;;26.20;43.04
50592;BME280;36548;50.506;30.834;2023-06-10T05:48:38;99836.45;;;26.25;42.72
50592;BME280;36548;50.506;30.834;2023-06-10T05:49:47;99845.57;;;26.18;42.91
50592;BME280;36548;50.506;30.834;2023-06-10T05:51:04;99851.05;;;26.38;42.52
50592;BME280;36548;50.506;30.834;2023-06-10T05:52:14;99848.73;;;26.35;42.19
50592;BME280;36548;50.506;30.834;2023-06-10T05:53:24;99844.71;;;26.45;41.98
50592;BME280;36548;50.506;30.834;2023-06-10T05:54:33;99843.02;;;26.50;41.90
50592;BME280;36548;50.506;30.834;2023-06-10T05:55:48;99842.58;;;26.53;41.76
50592;BME280;36548;50.506;30.834;2023-06-10T05:57:00;99840.04;;;26.52;42.08
50592;BME280;36548;50.506;30.834;2023-06-10T05:58:15;99839.59;;;26.68;41.76
50592;BME280;36548;50.506;30.834;2023-06-10T05:59:23;99844.89;;;26.63;41.89
50592;BME280;36548;50.506;30.834;2023-06-10T06:00:39;99844.69;;;26.71;41.55
50592;BME280;36548;50.506;30.834;2023-06-10T06:01:49;99851.23;;;26.64;41.76
50592;BME280;36548;50.506;30.834;2023-06-10T06:02:59;99851.44;;;26.69;41.66
50592;BME280;36548;50.506;30.834;2023-06-10T06:04:14;99840.00;;;26.85;41.57
50592;BME280;36548;50.506;30.834;2023-06-10T06:05:25;99837.05;;;26.74;41.01
50592;BME280;36548;50.506;30.834;2023-06-10T06:06:46;99842.15;;;26.77;40.76
50592;BME280;36548;50.506;30.834;2023-06-10T06:07:56;99851.45;;;26.62;41.03
50592;BME280;36548;50.506;30.834;2023-06-10T06:09:06;99844.03;;;26.76;40.92
50592;BME280;36548;50.506;30.834;2023-06-10T06:10:18;99844.23;;;26.88;40.88
50592;BME280;36548;50.506;30.834;2023-06-10T06:11:29;99833.80;;;27.03;40.62
50592;BME280;36548;50.506;30.834;2023-06-10T06:12:44;99837.77;;;27.21;40.42
50592;BME280;36548;50.506;30.834;2023-06-10T06:13:54;99847.53;;;27.17;40.58
50592;BME280;36548;50.506;30.834;2023-06-10T06:15:10;99841.50;;;27.40;40.12
50592;BME280;36548;50.506;30.834;2023-06-10T06:16:20;99841.55;;;27.27;39.54
50592;BME280;36548;50.506;30.834;2023-06-10T06:17:30;99842.36;;;27.34;39.36
50592;BME280;36548;50.506;30.834;2023-06-10T06:18:43;99836.21;;;27.38;39.15
50592;BME280;36548;50.506;30.834;2023-06-10T06:19:52;99850.23;;;27.23;39.64
50592;BME280;36548;50.506;30.834;2023-06-10T06:21:02;99854.67;;;27.38;39.24
50592;BME280;36548;50.506;30.834;2023-06-10T06:22:17;99846.05;;;27.60;39.24
50592;BME280;36548;50.506;30.834;2023-06-10T06:23:30;99857.08;;;27.60;38.50
50592;BME280;36548;50.506;30.834;2023-06-10T06:24:45;99849.19;;;27.70;38.54
50592;BME280;36548;50.506;30.834;2023-06-10T06:25:55;99845.19;;;27.66;38.57
50592;BME280;36548;50.506;30.834;2023-06-10T06:27:17;99852.97;;;27.76;38.32
50592;BME280;36548;50.506;30.834;2023-06-10T06:28:26;99846.88;;;27.67;38.74
50592;BME280;36548;50.506;30.834;2023-06-10T06:29:43;99849.98;;;27.77;38.58